createdAt,value
2018-08-20T00:00:03.442Z,5.95
2018-08-20T00:05:08.511Z,4.92
2018-08-20T00:10:13.244Z,5.17
2018-08-20T00:15:17.937Z,5.17
2018-08-20T00:20:23.408Z,5.62
2018-08-20T00:25:28.365Z,5.20
2018-08-20T00:30:33.093Z,5.08
2018-08-20T00:35:39.501Z,5.20
2018-08-20T00:40:44.569Z,5.37
2018-08-20T00:45:49.457Z,4.62
2018-08-20T00:50:54.188Z,5.62
2018-08-20T00:55:59.030Z,5.60
2018-08-20T01:01:04.652Z,5.72
2018-08-20T01:06:09.940Z,5.28
2018-08-20T01:11:15.767Z,5.67
2018-08-20T01:16:20.743Z,5.80
2018-08-20T01:21:26.199Z,5.62
2018-08-20T01:26:31.022Z,5.75
2018-08-20T01:31:35.683Z,5.42
2018-08-20T01:36:40.486Z,5.53
2018-08-20T01:41:45.248Z,5.45
2018-08-20T01:46:50.631Z,5.97
2018-08-20T01:51:55.554Z,5.78
2018-08-20T01:57:00.405Z,5.70
2018-08-20T02:02:05.222Z,6.05
2018-08-20T02:07:10.931Z,5.10
2018-08-20T02:12:15.696Z,5.72
2018-08-20T02:17:20.961Z,5.97
2018-08-20T02:22:26.296Z,5.70
2018-08-20T02:27:31.058Z,6.08
2018-08-20T02:32:36.248Z,5.95
2018-08-20T02:37:45.127Z,5.15
2018-08-20T02:42:51.233Z,6.05
2018-08-20T02:47:55.862Z,5.53
2018-08-20T02:53:00.532Z,5.95
2018-08-20T02:58:05.278Z,6.10
2018-08-20T03:03:09.969Z,5.97
2018-08-20T03:08:15.595Z,6.22
2018-08-20T03:13:20.525Z,6.05
2018-08-20T03:18:26.107Z,6.35
2018-08-20T03:23:30.839Z,6.28
2018-08-20T03:28:35.782Z,6.70
2018-08-20T03:33:40.799Z,6.08
2018-08-20T03:38:45.651Z,6.12
2018-08-20T03:43:50.553Z,6.30
2018-08-20T03:48:55.939Z,6.42
2018-08-20T03:54:00.669Z,6.15
2018-08-20T03:59:06.026Z,6.70
2018-08-20T04:04:10.678Z,6.58
2018-08-20T04:09:15.521Z,6.78
2018-08-20T04:14:20.224Z,6.92
2018-08-20T04:19:25.083Z,6.47
2018-08-20T04:24:29.848Z,6.75
2018-08-20T04:29:35.452Z,6.65
2018-08-20T04:34:41.366Z,6.33
2018-08-20T04:39:46.182Z,6.47
2018-08-20T04:44:51.024Z,6.55
2018-08-20T04:49:58.275Z,6.60
2018-08-20T04:55:03.230Z,6.72
2018-08-20T05:00:09.973Z,6.75
2018-08-20T05:05:15.836Z,5.90
2018-08-20T05:10:21.195Z,6.15
2018-08-20T05:15:26.290Z,6.37
2018-08-20T05:20:31.681Z,6.45
2018-08-20T05:25:36.395Z,6.40
2018-08-20T05:30:42.120Z,6.53
2018-08-20T05:35:47.342Z,5.53
2018-08-20T05:40:52.447Z,6.28
2018-08-20T05:45:57.157Z,6.20
2018-08-20T05:51:02.001Z,6.05
2018-08-20T05:56:06.727Z,6.28
2018-08-20T06:01:11.812Z,6.15
2018-08-20T06:06:16.502Z,6.40
2018-08-20T06:11:21.246Z,6.17
2018-08-20T06:16:26.148Z,6.83
2018-08-20T06:21:31.281Z,5.95
2018-08-20T06:26:36.770Z,5.87
2018-08-20T06:31:41.826Z,5.45
2018-08-20T06:36:46.712Z,5.60
2018-08-20T06:41:51.934Z,5.20
2018-08-20T06:46:56.766Z,5.87
2018-08-20T06:52:01.674Z,5.40
2018-08-20T06:57:06.633Z,4.70
2018-08-20T07:02:11.573Z,4.65
2018-08-20T07:07:16.443Z,4.03
2018-08-20T07:12:21.206Z,4.72
2018-08-20T07:17:26.722Z,4.28
2018-08-20T07:22:31.327Z,4.50
2018-08-20T07:27:37.839Z,5.25
2018-08-20T07:32:42.551Z,4.78
2018-08-20T07:37:47.533Z,4.40
2018-08-20T07:42:52.868Z,4.25
2018-08-20T07:47:57.999Z,3.98
2018-08-20T07:53:02.971Z,3.77
2018-08-20T07:58:08.088Z,4.25
2018-08-20T08:03:13.135Z,4.05
2018-08-20T08:08:18.319Z,4.67
2018-08-20T08:13:23.269Z,4.50
2018-08-20T08:18:28.046Z,5.17
2018-08-20T08:23:33.002Z,4.65
2018-08-20T08:28:38.330Z,5.00
2018-08-20T08:33:44.174Z,5.12
2018-08-20T08:38:49.341Z,5.35
2018-08-20T08:43:54.191Z,5.35
2018-08-20T08:48:59.054Z,5.80
2018-08-20T08:54:04.277Z,5.58
2018-08-20T08:59:09.336Z,5.53
2018-08-20T09:04:14.150Z,5.17
2018-08-20T09:09:19.093Z,5.47
2018-08-20T09:14:24.261Z,6.25
2018-08-20T09:19:29.469Z,5.67
2018-08-20T09:24:35.251Z,5.92
2018-08-20T09:29:41.402Z,5.47
2018-08-20T09:34:47.220Z,5.87
2018-08-20T09:39:52.470Z,5.65
2018-08-20T09:44:57.323Z,4.92
2018-08-20T09:50:02.149Z,5.53
2018-08-20T09:55:07.781Z,5.42
2018-08-20T10:00:23.372Z,5.22
2018-08-20T10:05:29.327Z,5.65
2018-08-20T10:10:34.315Z,5.25
2018-08-20T10:15:39.209Z,5.50
2018-08-20T10:20:44.447Z,5.20
2018-08-20T10:25:49.299Z,4.83
2018-08-20T10:30:54.346Z,4.47
2018-08-20T10:35:59.373Z,4.70
2018-08-20T10:41:04.260Z,4.95
2018-08-20T10:46:14.118Z,4.37
2018-08-20T10:51:18.904Z,4.53
2018-08-20T10:56:24.156Z,4.50
2018-08-20T11:01:28.980Z,3.85
2018-08-20T11:06:33.701Z,4.15
2018-08-20T11:11:38.736Z,3.75
2018-08-20T11:16:44.462Z,4.15
2018-08-20T11:21:50.039Z,3.95
2018-08-20T11:26:54.960Z,4.08
2018-08-20T11:31:59.660Z,3.30
2018-08-20T11:37:04.712Z,3.67
2018-08-20T11:42:09.699Z,3.15
2018-08-20T11:47:14.507Z,3.52
2018-08-20T11:52:19.294Z,3.65
2018-08-20T11:57:24.101Z,3.47
2018-08-20T12:02:29.097Z,3.40
2018-08-20T12:07:33.942Z,3.02
2018-08-20T12:12:39.381Z,3.30
2018-08-20T12:17:44.213Z,3.33
2018-08-20T12:22:49.359Z,3.60
2018-08-20T12:27:54.657Z,3.67
2018-08-20T12:32:59.610Z,2.98
2018-08-20T12:38:04.522Z,3.50
2018-08-20T12:43:09.391Z,3.22
2018-08-20T12:48:14.169Z,3.37
2018-08-20T12:53:19.150Z,3.55
2018-08-20T12:58:23.775Z,2.70
2018-08-20T13:03:28.610Z,2.95
2018-08-20T13:08:33.864Z,3.10
2018-08-20T13:13:38.615Z,2.87
2018-08-20T13:18:44.340Z,2.60
2018-08-20T13:23:50.156Z,3.17
2018-08-20T13:28:57.605Z,2.70
2018-08-20T13:34:13.021Z,2.90
2018-08-20T13:39:23.626Z,3.30
2018-08-20T13:44:32.923Z,3.10
2018-08-20T13:49:43.259Z,2.90
2018-08-20T13:54:48.236Z,3.17
2018-08-20T13:59:53.784Z,2.77
2018-08-20T14:05:02.748Z,2.62
2018-08-20T14:10:10.638Z,2.80
2018-08-20T14:15:15.817Z,3.30
2018-08-20T14:20:20.618Z,2.92
2018-08-20T14:25:26.162Z,3.20
2018-08-20T14:30:31.045Z,3.20
2018-08-20T14:35:36.506Z,2.90
2018-08-20T14:40:42.020Z,3.00
2018-08-20T14:45:51.870Z,2.90
2018-08-20T14:50:57.528Z,3.02
2018-08-20T14:56:02.347Z,3.10
2018-08-20T15:01:07.335Z,2.85
2018-08-20T15:06:12.282Z,2.95
2018-08-20T15:11:17.205Z,3.47
2018-08-20T15:16:22.348Z,2.67
2018-08-20T15:21:28.070Z,3.12
2018-08-20T15:26:32.940Z,2.85
2018-08-20T15:31:37.609Z,3.50
2018-08-20T15:36:42.600Z,3.15
2018-08-20T15:59:54.789Z,3.67
2018-08-20T16:05:00.170Z,3.35
2018-08-20T16:10:08.599Z,3.22
2018-08-20T16:15:13.628Z,3.22
2018-08-20T16:20:18.443Z,3.12
2018-08-20T16:25:26.440Z,3.15
2018-08-20T16:30:31.707Z,3.27
2018-08-20T16:35:36.566Z,3.33
2018-08-20T16:40:45.138Z,3.60
2018-08-20T16:45:51.154Z,3.08
2018-08-20T16:50:56.041Z,3.40
2018-08-20T16:56:00.878Z,3.02
2018-08-20T17:01:06.915Z,3.47
2018-08-20T17:06:12.128Z,3.30
2018-08-20T17:11:18.821Z,3.17
2018-08-20T17:16:23.812Z,3.08
2018-08-20T17:21:28.875Z,3.67
2018-08-20T17:26:33.869Z,3.52
2018-08-20T17:31:38.896Z,4.30
2018-08-20T17:36:43.888Z,3.83
2018-08-20T17:41:48.637Z,3.40
2018-08-20T17:46:55.085Z,3.58
2018-08-20T17:52:00.110Z,4.42
2018-08-20T17:57:05.154Z,3.62
2018-08-20T18:02:19.449Z,3.70
2018-08-20T18:07:24.737Z,3.77
2018-08-20T18:12:30.102Z,3.75
2018-08-20T18:17:34.915Z,4.35
2018-08-20T18:22:39.737Z,3.75
2018-08-20T18:27:45.331Z,3.80
2018-08-20T18:32:51.018Z,4.08
2018-08-20T18:37:55.844Z,4.42
2018-08-20T18:43:00.906Z,4.45
2018-08-20T18:48:05.991Z,3.55
2018-08-20T18:53:10.848Z,4.25
2018-08-20T18:58:15.959Z,4.00
2018-08-20T19:03:20.880Z,3.98
2018-08-20T19:08:27.048Z,4.65
2018-08-20T19:13:33.191Z,4.42
2018-08-20T19:18:38.475Z,3.95
2018-08-20T19:23:43.861Z,4.22
2018-08-20T19:28:48.985Z,4.40
2018-08-20T19:33:54.130Z,3.87
2018-08-20T19:38:59.143Z,4.25
2018-08-20T19:44:04.318Z,3.98
2018-08-20T19:49:15.981Z,4.05
2018-08-20T19:54:21.959Z,3.72
2018-08-20T19:59:32.458Z,3.40
2018-08-20T20:04:37.562Z,3.72
2018-08-20T20:09:46.723Z,4.37
2018-08-20T20:14:51.532Z,3.83
2018-08-20T20:19:56.386Z,3.30
2018-08-20T20:25:02.611Z,3.37
2018-08-20T20:30:08.522Z,3.55
2018-08-20T20:35:13.378Z,3.25
2018-08-20T20:40:18.281Z,3.02
2018-08-20T20:45:28.141Z,3.50
2018-08-20T20:50:33.359Z,3.55
2018-08-20T20:55:39.619Z,3.42
2018-08-20T21:00:45.571Z,3.80
2018-08-20T21:05:51.502Z,3.33
2018-08-20T21:10:58.048Z,3.22
2018-08-20T21:16:08.443Z,3.80
2018-08-20T21:21:15.426Z,3.30
2018-08-20T21:26:21.641Z,3.58
2018-08-20T21:31:27.985Z,3.17
2018-08-20T21:36:33.124Z,3.77
2018-08-20T21:41:38.586Z,3.45
2018-08-20T21:46:43.826Z,3.83
2018-08-20T21:51:57.149Z,3.52
2018-08-20T21:57:03.331Z,3.20
2018-08-20T22:02:08.328Z,3.80
2018-08-20T22:07:13.159Z,3.60
2018-08-20T22:12:18.446Z,3.37
2018-08-20T22:17:29.967Z,3.67
2018-08-20T22:22:34.641Z,3.50
2018-08-20T22:27:44.507Z,3.35
2018-08-20T22:32:50.552Z,3.27
2018-08-20T22:37:55.449Z,3.20
2018-08-20T22:43:01.503Z,3.37
2018-08-20T22:48:06.546Z,3.25
2018-08-20T22:53:11.814Z,3.60
2018-08-20T22:58:16.713Z,3.25
2018-08-20T23:03:21.423Z,3.37
2018-08-20T23:08:27.497Z,3.77
2018-08-20T23:13:32.363Z,3.35
2018-08-20T23:18:37.176Z,4.08
2018-08-20T23:23:42.039Z,3.00
2018-08-20T23:28:47.584Z,3.50
2018-08-20T23:33:52.467Z,3.60
2018-08-20T23:38:57.360Z,3.27
2018-08-20T23:44:02.198Z,3.00
2018-08-20T23:49:06.995Z,3.00
